createdAt,value
2023-12-22T00:01:59.380Z,78
2023-12-22T00:03:58.905Z,76
2023-12-22T00:05:59.145Z,80
2023-12-22T00:07:59.203Z,78
2023-12-22T00:09:58.860Z,78
2023-12-22T00:11:58.906Z,78
2023-12-22T00:13:59.243Z,78
2023-12-22T00:15:58.882Z,78
2023-12-22T00:17:59.218Z,78
2023-12-22T00:19:59.133Z,78
2023-12-22T00:21:58.820Z,78
2023-12-22T00:23:58.831Z,78
2023-12-22T00:25:59.082Z,78
2023-12-22T00:27:58.886Z,78
2023-12-22T00:29:58.755Z,78
2023-12-22T00:31:59.051Z,78
2023-12-22T00:33:59.243Z,78
2023-12-22T00:35:58.809Z,78
2023-12-22T00:37:59.295Z,78
2023-12-22T00:39:58.872Z,78
2023-12-22T00:41:58.875Z,78
2023-12-22T00:43:59.369Z,78
2023-12-22T00:45:58.974Z,78
2023-12-22T00:47:59.129Z,78
2023-12-22T00:49:59.141Z,78
2023-12-22T00:51:59.144Z,78
2023-12-22T00:53:58.863Z,78
2023-12-22T00:55:59.565Z,78
2023-12-22T00:57:58.848Z,78
2023-12-22T00:59:59.020Z,78
2023-12-22T01:01:59.221Z,78
2023-12-22T01:03:58.806Z,78
2023-12-22T01:05:59.684Z,78
2023-12-22T01:07:59.041Z,78
2023-12-22T01:09:58.822Z,78
2023-12-22T01:11:59.195Z,78
2023-12-22T01:13:59.208Z,78
2023-12-22T01:15:59.088Z,78
2023-12-22T01:17:59.336Z,78
2023-12-22T01:19:59.118Z,78
2023-12-22T01:21:58.799Z,78
2023-12-22T01:23:58.912Z,78
2023-12-22T01:25:59.242Z,78
2023-12-22T01:27:58.733Z,78
2023-12-22T01:29:58.847Z,78
2023-12-22T01:31:59.461Z,78
2023-12-22T01:33:59.108Z,78
2023-12-22T01:35:58.886Z,78
2023-12-22T01:37:59.548Z,78
2023-12-22T01:39:58.811Z,78
2023-12-22T01:41:58.827Z,78
2023-12-22T01:43:59.152Z,78
2023-12-22T01:45:58.746Z,78
2023-12-22T01:47:59.324Z,78
2023-12-22T01:49:59.210Z,78
2023-12-22T01:51:58.895Z,78
2023-12-22T01:53:58.907Z,78
2023-12-22T01:55:59.162Z,78
2023-12-22T01:57:58.683Z,78
2023-12-22T01:59:58.847Z,78
2023-12-22T02:01:59.183Z,78
2023-12-22T02:03:59.238Z,78
2023-12-22T02:05:59.456Z,78
2023-12-22T02:07:59.350Z,78
2023-12-22T02:09:58.830Z,78
2023-12-22T02:11:58.819Z,78
2023-12-22T02:13:59.051Z,78
2023-12-22T02:15:58.885Z,78
2023-12-22T02:17:59.092Z,78
2023-12-22T02:19:59.337Z,78
2023-12-22T02:21:58.781Z,78
2023-12-22T02:23:58.712Z,78
2023-12-22T02:25:59.252Z,78
2023-12-22T02:27:58.832Z,78
2023-12-22T02:29:58.845Z,78
2023-12-22T02:31:59.169Z,78
2023-12-22T02:33:59.294Z,78
2023-12-22T02:35:58.823Z,78
2023-12-22T02:37:59.204Z,78
2023-12-22T02:39:58.900Z,78
2023-12-22T02:41:58.809Z,78
2023-12-22T02:43:59.066Z,78
2023-12-22T02:45:58.831Z,78
2023-12-22T02:47:59.275Z,78
2023-12-22T02:49:59.417Z,80
2023-12-22T02:51:58.928Z,80
2023-12-22T02:53:58.887Z,80
2023-12-22T02:55:59.144Z,78
2023-12-22T02:57:58.718Z,80
2023-12-22T02:59:58.824Z,78
2023-12-22T03:01:58.957Z,78
2023-12-22T03:03:59.118Z,78
2023-12-22T03:05:59.077Z,78
2023-12-22T03:07:59.579Z,78
2023-12-22T03:09:58.902Z,78
2023-12-22T03:11:58.723Z,78
2023-12-22T03:13:59.031Z,78
2023-12-22T03:15:58.824Z,78
2023-12-22T03:17:59.158Z,78
2023-12-22T03:19:59.408Z,78
2023-12-22T03:21:58.980Z,78
2023-12-22T03:23:59.029Z,78
2023-12-22T03:25:59.251Z,78
2023-12-22T03:27:58.920Z,78
2023-12-22T03:29:58.713Z,78
2023-12-22T03:31:59.145Z,78
2023-12-22T03:33:58.988Z,78
2023-12-22T03:35:58.750Z,78
2023-12-22T03:37:58.983Z,78
2023-12-22T03:39:58.799Z,78
2023-12-22T03:41:58.686Z,78
2023-12-22T03:43:59.142Z,78
2023-12-22T03:45:58.813Z,78
2023-12-22T03:47:58.782Z,78
2023-12-22T03:49:59.536Z,80
2023-12-22T03:51:58.748Z,78
2023-12-22T03:53:59.447Z,78
2023-12-22T03:55:59.361Z,78
2023-12-22T03:57:58.695Z,78
2023-12-22T03:59:58.826Z,80
2023-12-22T04:01:59.257Z,80
2023-12-22T04:03:58.844Z,78
2023-12-22T04:05:59.190Z,78
2023-12-22T04:07:59.111Z,78
2023-12-22T04:09:58.877Z,78
2023-12-22T04:11:58.824Z,78
2023-12-22T04:13:58.915Z,78
2023-12-22T04:15:58.908Z,78
2023-12-22T04:17:58.859Z,78
2023-12-22T04:19:59.540Z,78
2023-12-22T04:21:58.702Z,78
2023-12-22T04:23:58.691Z,78
2023-12-22T04:25:59.200Z,78
2023-12-22T04:27:58.840Z,78
2023-12-22T04:29:58.795Z,78
2023-12-22T04:31:59.123Z,78
2023-12-22T04:33:59.149Z,78
2023-12-22T04:35:58.717Z,78
2023-12-22T04:37:59.437Z,78
2023-12-22T04:39:58.702Z,78
2023-12-22T04:41:58.994Z,78
2023-12-22T04:43:59.231Z,78
2023-12-22T04:45:58.803Z,78
2023-12-22T04:47:59.453Z,78
2023-12-22T04:49:59.268Z,78
2023-12-22T04:52:03.342Z,78
2023-12-22T04:53:58.856Z,80
2023-12-22T04:55:59.130Z,78
2023-12-22T04:57:58.866Z,78
2023-12-22T04:59:58.751Z,78
2023-12-22T05:01:59.223Z,78
2023-12-22T05:03:58.813Z,78
2023-12-22T05:05:59.063Z,78
2023-12-22T05:07:59.118Z,78
2023-12-22T05:09:58.745Z,78
2023-12-22T05:11:58.757Z,78
2023-12-22T05:14:03.032Z,78
2023-12-22T05:15:59.121Z,78
2023-12-22T05:17:59.050Z,78
2023-12-22T05:19:58.945Z,78
2023-12-22T05:21:58.834Z,78
2023-12-22T05:23:58.736Z,78
2023-12-22T05:25:59.177Z,78
2023-12-22T05:27:58.754Z,78
2023-12-22T05:29:58.663Z,78
2023-12-22T05:31:59.349Z,78
2023-12-22T05:33:58.795Z,78
2023-12-22T05:35:59.056Z,78
2023-12-22T05:37:59.167Z,78
2023-12-22T05:39:58.836Z,78
2023-12-22T05:41:58.747Z,78
2023-12-22T05:43:59.234Z,78
2023-12-22T05:45:58.671Z,78
2023-12-22T05:47:59.280Z,78
2023-12-22T05:49:59.476Z,78
2023-12-22T05:51:58.655Z,78
2023-12-22T05:53:58.675Z,78
2023-12-22T05:55:59.281Z,78
2023-12-22T05:57:58.638Z,78
2023-12-22T05:59:58.640Z,78
2023-12-22T06:01:59.105Z,78
2023-12-22T06:03:59.038Z,78
2023-12-22T06:05:59.001Z,78
2023-12-22T06:07:59.258Z,78
2023-12-22T06:09:58.649Z,78
2023-12-22T06:11:58.734Z,78
2023-12-22T06:13:59.317Z,78
2023-12-22T06:15:58.637Z,78
2023-12-22T06:17:59.152Z,78
2023-12-22T06:19:59.147Z,78
2023-12-22T06:21:58.803Z,78
2023-12-22T06:23:58.630Z,78
2023-12-22T06:25:59.291Z,78
2023-12-22T06:27:58.632Z,78
2023-12-22T06:29:58.747Z,78
2023-12-22T06:31:59.348Z,78
2023-12-22T06:33:59.473Z,78
2023-12-22T06:35:58.816Z,78
2023-12-22T06:37:59.230Z,78
2023-12-22T06:39:58.634Z,78
2023-12-22T06:41:58.661Z,78
2023-12-22T06:43:59.296Z,78
2023-12-22T06:45:58.663Z,78
2023-12-22T06:47:59.762Z,78
2023-12-22T06:49:59.300Z,78
2023-12-22T06:51:58.944Z,78
2023-12-22T06:53:59.626Z,78
2023-12-22T06:55:58.808Z,78
2023-12-22T06:57:58.669Z,80
2023-12-22T06:59:58.716Z,78
2023-12-22T07:02:24.816Z,78
2023-12-22T07:03:58.789Z,80
2023-12-22T07:05:58.879Z,78
2023-12-22T07:07:59.155Z,78
2023-12-22T07:09:58.619Z,78
2023-12-22T07:11:58.816Z,78
2023-12-22T07:13:59.201Z,78
2023-12-22T07:15:58.757Z,78
2023-12-22T07:17:59.196Z,78
2023-12-22T07:19:59.613Z,78
2023-12-22T07:21:58.627Z,78
2023-12-22T07:24:01.484Z,78
2023-12-22T07:25:58.924Z,78
2023-12-22T07:27:58.633Z,78
2023-12-22T07:29:58.651Z,76
2023-12-22T07:32:01.462Z,78
2023-12-22T07:33:58.871Z,78
2023-12-22T07:35:58.865Z,78
2023-12-22T07:37:59.645Z,78
2023-12-22T07:40:00.480Z,78
2023-12-22T07:41:58.655Z,78
2023-12-22T07:43:59.043Z,78
2023-12-22T07:45:58.660Z,78
2023-12-22T07:48:02.181Z,78
2023-12-22T07:49:59.334Z,78
2023-12-22T07:51:58.661Z,78
2023-12-22T07:53:58.715Z,78
2023-12-22T07:55:59.148Z,78
2023-12-22T07:57:58.704Z,78
2023-12-22T07:59:58.650Z,78
2023-12-22T08:01:59.030Z,78
2023-12-22T08:03:59.069Z,78
2023-12-22T08:05:59.336Z,78
2023-12-22T08:07:59.005Z,78
2023-12-22T08:09:58.624Z,78
2023-12-22T08:11:58.982Z,78
2023-12-22T08:13:59.070Z,78
2023-12-22T08:15:58.661Z,74
2023-12-22T08:17:59.296Z,76
2023-12-22T08:20:22.857Z,74
2023-12-22T08:22:07.682Z,80
2023-12-22T08:23:59.112Z,78
2023-12-22T08:25:59.346Z,80
2023-12-22T08:27:58.933Z,78
2023-12-22T08:29:58.703Z,80
2023-12-22T08:31:58.961Z,78
2023-12-22T08:33:59.062Z,80
2023-12-22T08:35:58.619Z,78
2023-12-22T08:37:59.731Z,80
2023-12-22T08:39:59.605Z,76
2023-12-22T08:41:58.651Z,76
2023-12-22T08:43:59.468Z,78
2023-12-22T08:45:58.684Z,76
2023-12-22T08:47:59.984Z,78
2023-12-22T08:49:58.960Z,78
2023-12-22T08:51:58.676Z,78
2023-12-22T08:53:58.968Z,80
2023-12-22T08:55:59.005Z,74
2023-12-22T08:58:04.312Z,76
2023-12-22T08:59:58.857Z,78
2023-12-22T09:01:59.461Z,66
2023-12-22T09:03:58.719Z,76
2023-12-22T09:05:58.850Z,74
2023-12-22T09:07:58.986Z,76
2023-12-22T09:09:58.663Z,72
2023-12-22T09:11:58.672Z,76
2023-12-22T09:13:58.897Z,74
2023-12-22T09:15:58.924Z,76
2023-12-22T09:17:59.028Z,76
2023-12-22T09:19:58.982Z,74
2023-12-22T09:21:58.675Z,74
2023-12-22T09:23:58.710Z,76
2023-12-22T09:25:59.062Z,74
2023-12-22T09:27:58.692Z,78
2023-12-22T09:29:58.666Z,76
2023-12-22T09:31:59.166Z,78
2023-12-22T09:33:59.305Z,76
2023-12-22T09:35:58.731Z,76
2023-12-22T09:37:59.198Z,76
2023-12-22T09:39:58.660Z,78
2023-12-22T09:41:58.679Z,74
2023-12-22T09:43:59.031Z,78
2023-12-22T09:45:58.670Z,78
2023-12-22T09:47:59.061Z,78
2023-12-22T09:49:58.928Z,78
2023-12-22T09:51:58.599Z,76
2023-12-22T09:54:03.012Z,78
2023-12-22T09:55:58.998Z,78
2023-12-22T09:57:58.669Z,78
2023-12-22T09:59:58.657Z,78
2023-12-22T10:01:58.928Z,78
2023-12-22T10:03:58.963Z,76
2023-12-22T10:05:58.928Z,76
2023-12-22T10:07:58.960Z,78
2023-12-22T10:09:58.719Z,76
2023-12-22T10:11:58.580Z,80
2023-12-22T10:13:58.987Z,76
2023-12-22T10:15:59.185Z,76
2023-12-22T10:17:59.164Z,78
2023-12-22T10:19:59.206Z,78
2023-12-22T10:21:58.819Z,78
2023-12-22T10:23:58.700Z,78
2023-12-22T10:25:58.995Z,78
2023-12-22T10:27:58.620Z,78
2023-12-22T10:29:58.614Z,78
2023-12-22T10:31:59.147Z,78
2023-12-22T10:33:58.999Z,78
2023-12-22T10:35:58.848Z,78
2023-12-22T10:38:05.292Z,80
2023-12-22T10:39:58.836Z,74
2023-12-22T10:41:59.097Z,78
2023-12-22T10:43:59.521Z,76
2023-12-22T10:45:58.680Z,72
2023-12-22T10:47:59.149Z,76
2023-12-22T10:49:58.914Z,74
2023-12-22T10:51:58.942Z,74
2023-12-22T10:53:58.657Z,72
2023-12-22T10:55:58.885Z,74
2023-12-22T10:57:58.685Z,76
2023-12-22T10:59:59.270Z,76
2023-12-22T11:01:59.217Z,76
2023-12-22T11:03:58.910Z,76
2023-12-22T11:05:59.042Z,74
2023-12-22T11:08:04.426Z,76
2023-12-22T11:09:58.644Z,76
2023-12-22T11:11:58.670Z,78
2023-12-22T11:13:58.901Z,78
2023-12-22T11:15:58.663Z,80
2023-12-22T11:17:59.406Z,76
2023-12-22T11:19:59.170Z,78
2023-12-22T11:21:58.661Z,78
2023-12-22T11:23:59.065Z,78
2023-12-22T11:25:59.072Z,78
2023-12-22T11:27:58.656Z,78
2023-12-22T11:29:58.555Z,78
2023-12-22T11:31:59.003Z,78
2023-12-22T11:34:19.730Z,78
2023-12-22T11:35:58.711Z,78
2023-12-22T11:37:58.710Z,76
2023-12-22T11:39:59.045Z,78
2023-12-22T11:41:58.619Z,78
2023-12-22T11:43:58.869Z,78
2023-12-22T11:45:58.859Z,76
2023-12-22T11:47:59.123Z,78
2023-12-22T11:49:58.683Z,78
2023-12-22T11:51:58.608Z,78
2023-12-22T11:53:58.632Z,78
2023-12-22T11:55:59.301Z,78
2023-12-22T11:57:58.725Z,78
2023-12-22T11:59:58.572Z,78
2023-12-22T12:02:04.425Z,78
2023-12-22T12:03:58.883Z,78
2023-12-22T12:05:59.038Z,78
2023-12-22T12:08:04.683Z,78
2023-12-22T12:09:58.564Z,76
2023-12-22T12:11:58.872Z,76
2023-12-22T12:14:04.489Z,76
2023-12-22T12:15:58.643Z,76
2023-12-22T12:17:58.797Z,68
2023-12-22T12:19:58.694Z,78
2023-12-22T12:21:58.880Z,76
2023-12-22T12:23:58.686Z,76
2023-12-22T12:25:59.065Z,76
2023-12-22T12:27:58.857Z,76
2023-12-22T12:30:05.614Z,78
2023-12-22T12:31:58.975Z,72
2023-12-22T12:33:59.338Z,74
2023-12-22T12:36:00.408Z,74
2023-12-22T12:37:58.992Z,76
2023-12-22T12:39:58.643Z,76
2023-12-22T12:41:58.635Z,70
2023-12-22T12:43:59.111Z,76
2023-12-22T12:45:59.657Z,70
2023-12-22T12:48:04.244Z,68
2023-12-22T12:49:59.391Z,76
2023-12-22T12:51:58.667Z,72
2023-12-22T12:54:01.216Z,74
2023-12-22T12:55:58.839Z,68
2023-12-22T12:57:58.704Z,72
2023-12-22T12:59:59.575Z,68
2023-12-22T13:01:59.399Z,76
2023-12-22T13:04:00.722Z,72
2023-12-22T13:05:58.883Z,72
2023-12-22T13:07:58.728Z,72
2023-12-22T13:09:58.654Z,72
2023-12-22T13:11:58.670Z,68
2023-12-22T13:13:59.042Z,74
2023-12-22T13:15:58.851Z,74
2023-12-22T13:17:59.064Z,66
2023-12-22T13:19:58.671Z,74
2023-12-22T13:21:58.545Z,76
2023-12-22T13:23:58.623Z,74
2023-12-22T13:25:58.926Z,76
2023-12-22T13:27:58.620Z,76
2023-12-22T13:29:58.560Z,76
2023-12-22T13:31:59.103Z,76
2023-12-22T13:33:59.163Z,74
2023-12-22T13:35:58.540Z,76
2023-12-22T13:37:58.884Z,74
2023-12-22T13:39:58.564Z,76
2023-12-22T13:41:58.623Z,76
2023-12-22T13:43:58.909Z,76
2023-12-22T13:45:58.555Z,74
2023-12-22T13:47:59.200Z,76
2023-12-22T13:49:59.879Z,76
2023-12-22T13:51:58.633Z,74
2023-12-22T13:53:58.594Z,74
2023-12-22T13:55:58.898Z,78
2023-12-22T13:57:58.644Z,76
2023-12-22T13:59:59.313Z,76
2023-12-22T14:01:58.836Z,76
2023-12-22T14:03:58.850Z,76
2023-12-22T14:05:58.956Z,74
2023-12-22T14:07:59.185Z,76
2023-12-22T14:09:58.539Z,76
2023-12-22T14:12:20.893Z,76
2023-12-22T14:13:59.133Z,76
2023-12-22T14:15:58.796Z,76
2023-12-22T14:17:58.718Z,76
2023-12-22T14:19:59.413Z,76
2023-12-22T14:21:58.615Z,76
2023-12-22T14:23:58.624Z,76
2023-12-22T14:25:59.096Z,72
2023-12-22T14:27:58.599Z,72
2023-12-22T14:29:58.527Z,72
2023-12-22T14:31:58.711Z,70
2023-12-22T14:33:58.898Z,72
2023-12-22T14:35:58.857Z,70
2023-12-22T14:37:58.961Z,74
2023-12-22T14:39:58.517Z,76
2023-12-22T14:41:58.539Z,76
2023-12-22T14:43:58.893Z,66
2023-12-22T14:45:58.705Z,70
2023-12-22T14:47:59.047Z,72
2023-12-22T14:49:58.923Z,70
2023-12-22T14:51:58.852Z,72
2023-12-22T14:53:58.534Z,74
2023-12-22T14:55:59.080Z,70
2023-12-22T14:57:58.501Z,74
2023-12-22T14:59:58.705Z,74
2023-12-22T15:01:59.250Z,68
2023-12-22T15:03:59.014Z,68
2023-12-22T15:05:59.305Z,68
2023-12-22T15:07:59.316Z,68
2023-12-22T15:09:58.583Z,76
2023-12-22T15:11:58.649Z,76
2023-12-22T15:13:58.972Z,76
2023-12-22T15:15:58.586Z,74
2023-12-22T15:17:58.722Z,78
2023-12-22T15:19:59.041Z,78
2023-12-22T15:21:58.619Z,82
2023-12-22T15:23:58.854Z,80
2023-12-22T15:25:58.863Z,70
2023-12-22T15:27:58.576Z,74
2023-12-22T15:29:58.583Z,70
2023-12-22T15:31:58.821Z,74
2023-12-22T15:33:58.817Z,66
2023-12-22T15:35:58.573Z,76
2023-12-22T15:37:59.178Z,72
2023-12-22T15:39:58.866Z,68
2023-12-22T15:41:58.513Z,68
2023-12-22T15:43:59.349Z,74
2023-12-22T15:45:58.591Z,72
2023-12-22T15:47:59.220Z,72
2023-12-22T15:49:58.923Z,64
2023-12-22T15:51:58.560Z,72
2023-12-22T15:53:58.601Z,74
2023-12-22T15:55:58.968Z,74
2023-12-22T15:57:58.482Z,72
2023-12-22T15:59:58.505Z,72
2023-12-22T16:01:58.868Z,72
2023-12-22T16:03:58.859Z,74
2023-12-22T16:05:58.881Z,72
2023-12-22T16:07:58.929Z,60
2023-12-22T16:09:58.582Z,62
2023-12-22T16:11:58.766Z,58
2023-12-22T16:13:58.981Z,70
2023-12-22T16:15:58.626Z,66
2023-12-22T16:17:59.116Z,74
2023-12-22T16:19:58.730Z,72
2023-12-22T16:21:58.522Z,74
2023-12-22T16:23:58.518Z,68
2023-12-22T16:25:58.899Z,72
2023-12-22T16:27:58.879Z,74
2023-12-22T16:29:58.494Z,62
2023-12-22T16:31:58.898Z,72
2023-12-22T16:33:59.245Z,72
2023-12-22T16:35:58.506Z,72
2023-12-22T16:37:58.803Z,72
2023-12-22T16:39:58.494Z,72
2023-12-22T16:41:58.632Z,72
2023-12-22T16:43:58.898Z,72
2023-12-22T16:45:58.646Z,72
2023-12-22T16:47:59.214Z,72
2023-12-22T16:49:58.796Z,72
2023-12-22T16:51:58.519Z,72
2023-12-22T16:53:58.849Z,66
2023-12-22T16:55:59.763Z,72
2023-12-22T16:57:58.839Z,72
2023-12-22T16:59:58.602Z,70
2023-12-22T17:02:34.379Z,72
2023-12-22T17:03:59.669Z,72
2023-12-22T17:06:00.444Z,66
2023-12-22T17:08:01.045Z,74
2023-12-22T17:09:59.019Z,68
2023-12-22T17:11:58.495Z,72
2023-12-22T17:13:58.843Z,72
2023-12-22T17:15:58.764Z,68
2023-12-22T17:17:59.222Z,76
2023-12-22T17:20:04.546Z,62
2023-12-22T17:21:58.476Z,70
2023-12-22T17:23:58.647Z,66
2023-12-22T17:25:58.879Z,88
2023-12-22T17:27:58.965Z,88
2023-12-22T17:29:58.470Z,88
2023-12-22T17:31:59.233Z,88
2023-12-22T17:33:59.213Z,86
2023-12-22T17:35:58.476Z,88
2023-12-22T17:37:58.907Z,88
2023-12-22T17:39:58.451Z,120
2023-12-22T17:41:58.479Z,120
2023-12-22T17:43:58.915Z,120
2023-12-22T17:45:58.477Z,120
2023-12-22T17:47:59.447Z,120
2023-12-22T17:49:58.748Z,120
2023-12-22T17:51:58.587Z,120
2023-12-22T17:53:58.481Z,120
2023-12-22T17:55:58.609Z,120
2023-12-22T17:57:58.458Z,120
2023-12-22T17:59:58.472Z,122
2023-12-22T18:01:59.494Z,120
2023-12-22T18:03:58.971Z,120
2023-12-22T18:05:58.860Z,122
2023-12-22T18:07:58.776Z,122
2023-12-22T18:09:58.477Z,120
2023-12-22T18:11:58.448Z,120
2023-12-22T18:13:58.892Z,120
2023-12-22T18:15:58.533Z,120
2023-12-22T18:17:59.351Z,120
2023-12-22T18:19:59.205Z,120
2023-12-22T18:21:58.459Z,122
2023-12-22T18:23:58.643Z,120
2023-12-22T18:25:58.817Z,118
2023-12-22T18:27:58.629Z,118
2023-12-22T18:29:58.482Z,118
2023-12-22T18:31:58.771Z,108
2023-12-22T18:33:58.850Z,118
2023-12-22T18:35:58.949Z,118
2023-12-22T18:37:58.981Z,118
2023-12-22T18:39:58.467Z,118
2023-12-22T18:41:58.872Z,118
2023-12-22T18:43:58.925Z,118
2023-12-22T18:45:58.586Z,118
2023-12-22T18:47:59.589Z,118
2023-12-22T18:49:59.032Z,118
2023-12-22T18:51:59.084Z,118
2023-12-22T18:53:58.445Z,118
2023-12-22T18:55:59.588Z,118
2023-12-22T18:57:58.559Z,118
2023-12-22T18:59:58.477Z,118
2023-12-22T19:02:51.653Z,118
2023-12-22T19:03:59.377Z,118
2023-12-22T19:05:59.290Z,118
2023-12-22T19:07:59.963Z,118
2023-12-22T19:09:58.448Z,118
2023-12-22T19:11:59.304Z,118
2023-12-22T19:13:59.000Z,118
2023-12-22T19:15:59.417Z,118
2023-12-22T19:17:59.772Z,118
2023-12-22T19:19:59.131Z,120
2023-12-22T19:21:58.429Z,116
2023-12-22T19:23:58.668Z,122
2023-12-22T19:25:59.288Z,110
2023-12-22T19:28:02.354Z,122
2023-12-22T19:29:58.511Z,112
2023-12-22T19:31:58.826Z,118
2023-12-22T19:33:59.374Z,118
2023-12-22T19:35:58.472Z,116
2023-12-22T19:37:58.704Z,120
2023-12-22T19:39:58.592Z,120
2023-12-22T19:41:58.461Z,120
2023-12-22T19:43:58.918Z,120
2023-12-22T19:45:58.519Z,120
2023-12-22T19:47:58.829Z,120
2023-12-22T19:49:59.201Z,120
2023-12-22T19:51:58.463Z,120
2023-12-22T19:53:58.447Z,120
2023-12-22T19:55:59.343Z,122
2023-12-22T19:57:58.441Z,122
2023-12-22T19:59:58.447Z,110
2023-12-22T20:01:59.174Z,120
2023-12-22T20:03:58.468Z,110
2023-12-22T20:05:58.884Z,122
2023-12-22T20:07:58.862Z,122
2023-12-22T20:09:58.444Z,122
2023-12-22T20:11:59.096Z,122
2023-12-22T20:13:58.890Z,122
2023-12-22T20:15:58.597Z,120
2023-12-22T20:17:59.161Z,122
2023-12-22T20:19:59.505Z,122
2023-12-22T20:21:58.445Z,120
2023-12-22T20:23:58.897Z,110
2023-12-22T20:25:59.003Z,110
2023-12-22T20:27:58.720Z,112
2023-12-22T20:29:58.440Z,110
2023-12-22T20:31:58.819Z,110
2023-12-22T20:33:58.435Z,110
2023-12-22T20:35:58.632Z,122
2023-12-22T20:37:58.850Z,122
2023-12-22T20:39:58.748Z,110
2023-12-22T20:41:58.428Z,110
2023-12-22T20:43:58.819Z,122
2023-12-22T20:45:58.502Z,122
2023-12-22T20:47:59.048Z,122
2023-12-22T20:49:58.939Z,110
2023-12-22T20:51:58.433Z,112
2023-12-22T20:53:58.415Z,122
2023-12-22T20:55:58.773Z,110
2023-12-22T20:57:58.437Z,110
2023-12-22T20:59:58.724Z,110
2023-12-22T21:01:58.968Z,112
2023-12-22T21:03:59.215Z,110
2023-12-22T21:05:58.502Z,110
2023-12-22T21:07:59.117Z,112
2023-12-22T21:09:58.656Z,110
2023-12-22T21:11:58.411Z,112
2023-12-22T21:13:58.694Z,122
2023-12-22T21:15:58.813Z,110
2023-12-22T21:17:59.078Z,122
2023-12-22T21:19:58.985Z,122
2023-12-22T21:21:58.442Z,110
2023-12-22T21:23:58.410Z,112
2023-12-22T21:25:58.865Z,110
2023-12-22T21:27:58.409Z,110
2023-12-22T21:29:58.407Z,110
2023-12-22T21:31:58.760Z,122
2023-12-22T21:33:59.087Z,120
2023-12-22T21:35:58.385Z,122
2023-12-22T21:37:58.846Z,110
2023-12-22T21:39:58.423Z,110
2023-12-22T21:41:58.554Z,110
2023-12-22T21:43:59.019Z,112
2023-12-22T21:45:58.398Z,110
2023-12-22T21:47:59.389Z,112
2023-12-22T21:49:58.970Z,122
2023-12-22T21:51:58.649Z,122
2023-12-22T21:53:58.842Z,122
2023-12-22T21:55:58.673Z,112
2023-12-22T21:57:58.697Z,110
2023-12-22T21:59:58.391Z,122
2023-12-22T22:01:58.651Z,112
2023-12-22T22:03:59.042Z,112
2023-12-22T22:05:58.667Z,112
2023-12-22T22:07:58.888Z,112
2023-12-22T22:09:58.432Z,112
2023-12-22T22:11:58.389Z,112
2023-12-22T22:13:58.676Z,112
2023-12-22T22:15:58.461Z,112
2023-12-22T22:18:02.534Z,120
2023-12-22T22:19:59.044Z,112
2023-12-22T22:21:58.421Z,110
2023-12-22T22:24:02.465Z,110
2023-12-22T22:25:58.871Z,120
2023-12-22T22:27:58.405Z,122
2023-12-22T22:29:58.444Z,110
2023-12-22T22:31:59.043Z,110
2023-12-22T22:33:59.161Z,110
2023-12-22T22:35:58.708Z,112
2023-12-22T22:37:58.803Z,110
2023-12-22T22:39:58.420Z,112
2023-12-22T22:41:58.557Z,110
2023-12-22T22:43:58.918Z,110
2023-12-22T22:45:58.620Z,112
2023-12-22T22:47:58.969Z,110
2023-12-22T22:49:59.173Z,112
2023-12-22T22:51:58.866Z,110
2023-12-22T22:53:58.613Z,110
2023-12-22T22:55:59.020Z,110
2023-12-22T22:57:58.454Z,112
2023-12-22T22:59:58.718Z,120
2023-12-22T23:01:58.830Z,110
2023-12-22T23:04:02.996Z,110
2023-12-22T23:05:58.725Z,110
2023-12-22T23:07:58.853Z,110
2023-12-22T23:09:58.552Z,122
2023-12-22T23:11:58.446Z,110
2023-12-22T23:13:59.015Z,110
2023-12-22T23:15:58.665Z,110
2023-12-22T23:17:59.072Z,110
2023-12-22T23:19:58.735Z,110
2023-12-22T23:21:58.392Z,112
2023-12-22T23:23:58.825Z,110
2023-12-22T23:25:59.220Z,110
2023-12-22T23:27:58.655Z,110
2023-12-22T23:29:58.409Z,116
2023-12-22T23:31:58.967Z,110
2023-12-22T23:33:59.025Z,110
2023-12-22T23:36:28.148Z,122
2023-12-22T23:37:58.847Z,110
2023-12-22T23:39:58.879Z,110
2023-12-22T23:41:58.407Z,110
2023-12-22T23:43:58.788Z,120
2023-12-22T23:45:58.384Z,110
2023-12-22T23:47:59.050Z,122
2023-12-22T23:49:58.715Z,122
2023-12-22T23:51:58.435Z,122
2023-12-22T23:53:58.416Z,110
2023-12-22T23:55:58.915Z,122
2023-12-22T23:57:58.371Z,122
2023-12-22T23:59:58.586Z,122
